sensor_id;sensor_type;location;lat;lon;timestamp;temperature;humidity
19397;DHT22;9834;48.076;11.878;2022-11-20T00:01:27;4.70;99.90
19397;DHT22;9834;48.076;11.878;2022-11-20T00:03:56;4.70;99.90
19397;DHT22;9834;48.076;11.878;2022-11-20T00:06:26;4.70;99.90
19397;DHT22;9834;48.076;11.878;2022-11-20T00:08:55;4.70;99.90
19397;DHT22;9834;48.076;11.878;2022-11-20T00:11:23;4.70;99.90
19397;DHT22;9834;48.076;11.878;2022-11-20T00:13:53;4.70;99.90
19397;DHT22;9834;48.076;11.878;2022-11-20T00:16:22;4.70;99.90
19397;DHT22;9834;48.076;11.878;2022-11-20T00:18:50;4.70;99.90
19397;DHT22;9834;48.076;11.878;2022-11-20T00:21:19;4.60;99.90
19397;DHT22;9834;48.076;11.878;2022-11-20T00:23:48;4.60;99.90
19397;DHT22;9834;48.076;11.878;2022-11-20T00:26:18;4.70;99.90
19397;DHT22;9834;48.076;11.878;2022-11-20T00:28:49;4.60;99.90
19397;DHT22;9834;48.076;11.878;2022-11-20T00:31:17;4.60;99.90
19397;DHT22;9834;48.076;11.878;2022-11-20T00:33:44;4.70;99.90
19397;DHT22;9834;48.076;11.878;2022-11-20T00:36:13;4.70;99.90
19397;DHT22;9834;48.076;11.878;2022-11-20T00:38:41;4.80;99.90
19397;DHT22;9834;48.076;11.878;2022-11-20T00:41:11;4.80;99.90
19397;DHT22;9834;48.076;11.878;2022-11-20T00:43:38;4.80;99.90
19397;DHT22;9834;48.076;11.878;2022-11-20T00:46:07;4.80;99.90
19397;DHT22;9834;48.076;11.878;2022-11-20T00:48:34;4.80;99.90
19397;DHT22;9834;48.076;11.878;2022-11-20T00:51:01;4.90;99.90
19397;DHT22;9834;48.076;11.878;2022-11-20T00:53:28;4.80;99.90
19397;DHT22;9834;48.076;11.878;2022-11-20T00:55:56;4.90;99.90
19397;DHT22;9834;48.076;11.878;2022-11-20T00:58:28;4.90;99.90
19397;DHT22;9834;48.076;11.878;2022-11-20T01:01:00;4.90;99.90
19397;DHT22;9834;48.076;11.878;2022-11-20T01:03:27;4.90;99.90
19397;DHT22;9834;48.076;11.878;2022-11-20T01:05:54;4.90;99.90
19397;DHT22;9834;48.076;11.878;2022-11-20T01:08:28;4.90;99.90
19397;DHT22;9834;48.076;11.878;2022-11-20T01:10:59;4.90;99.90
19397;DHT22;9834;48.076;11.878;2022-11-20T01:13:28;4.80;99.90
19397;DHT22;9834;48.076;11.878;2022-11-20T01:16:06;4.80;99.90
19397;DHT22;9834;48.076;11.878;2022-11-20T01:18:33;4.90;99.90
19397;DHT22;9834;48.076;11.878;2022-11-20T01:21:01;4.80;99.90
19397;DHT22;9834;48.076;11.878;2022-11-20T01:23:31;4.80;99.90
19397;DHT22;9834;48.076;11.878;2022-11-20T01:26:00;4.80;99.90
19397;DHT22;9834;48.076;11.878;2022-11-20T01:28:30;4.80;99.90
19397;DHT22;9834;48.076;11.878;2022-11-20T01:30:57;4.80;99.90
19397;DHT22;9834;48.076;11.878;2022-11-20T01:33:24;4.80;99.90
19397;DHT22;9834;48.076;11.878;2022-11-20T01:35:51;4.80;99.90
19397;DHT22;9834;48.076;11.878;2022-11-20T01:38:19;4.80;99.90
19397;DHT22;9834;48.076;11.878;2022-11-20T01:40:54;4.70;99.90
19397;DHT22;9834;48.076;11.878;2022-11-20T01:43:21;4.80;99.90
19397;DHT22;9834;48.076;11.878;2022-11-20T01:46:00;4.80;99.90
19397;DHT22;9834;48.076;11.878;2022-11-20T01:48:32;4.70;99.90
19397;DHT22;9834;48.076;11.878;2022-11-20T01:51:00;4.70;99.90
19397;DHT22;9834;48.076;11.878;2022-11-20T01:53:31;4.70;99.90
19397;DHT22;9834;48.076;11.878;2022-11-20T01:56:01;4.70;99.90
19397;DHT22;9834;48.076;11.878;2022-11-20T01:58:31;4.70;99.90
19397;DHT22;9834;48.076;11.878;2022-11-20T02:01:00;4.80;99.90
19397;DHT22;9834;48.076;11.878;2022-11-20T02:03:28;4.80;99.90
19397;DHT22;9834;48.076;11.878;2022-11-20T02:06:00;4.90;99.90
19397;DHT22;9834;48.076;11.878;2022-11-20T02:08:29;4.90;99.90
19397;DHT22;9834;48.076;11.878;2022-11-20T02:10:57;4.80;99.90
19397;DHT22;9834;48.076;11.878;2022-11-20T02:13:23;4.90;99.90
19397;DHT22;9834;48.076;11.878;2022-11-20T02:16:12;4.80;99.90
19397;DHT22;9834;48.076;11.878;2022-11-20T02:18:40;4.90;99.90
19397;DHT22;9834;48.076;11.878;2022-11-20T02:21:12;4.90;99.90
19397;DHT22;9834;48.076;11.878;2022-11-20T02:23:53;5.00;99.90
19397;DHT22;9834;48.076;11.878;2022-11-20T02:26:22;5.00;99.90
19397;DHT22;9834;48.076;11.878;2022-11-20T02:28:49;5.00;99.90
19397;DHT22;9834;48.076;11.878;2022-11-20T02:31:17;4.90;99.90
19397;DHT22;9834;48.076;11.878;2022-11-20T02:33:44;5.00;99.90
19397;DHT22;9834;48.076;11.878;2022-11-20T02:36:13;5.10;99.90
19397;DHT22;9834;48.076;11.878;2022-11-20T02:38:41;5.00;99.90
19397;DHT22;9834;48.076;11.878;2022-11-20T02:41:10;5.00;99.90
19397;DHT22;9834;48.076;11.878;2022-11-20T02:43:37;5.10;99.90
19397;DHT22;9834;48.076;11.878;2022-11-20T02:46:06;5.10;99.90
19397;DHT22;9834;48.076;11.878;2022-11-20T02:48:33;5.10;99.90
19397;DHT22;9834;48.076;11.878;2022-11-20T02:51:01;5.10;99.90
19397;DHT22;9834;48.076;11.878;2022-11-20T02:53:28;5.20;99.90
19397;DHT22;9834;48.076;11.878;2022-11-20T02:55:55;5.20;99.90
19397;DHT22;9834;48.076;11.878;2022-11-20T02:58:24;5.20;99.90
19397;DHT22;9834;48.076;11.878;2022-11-20T03:00:52;5.20;99.90
19397;DHT22;9834;48.076;11.878;2022-11-20T03:03:19;5.20;99.90
19397;DHT22;9834;48.076;11.878;2022-11-20T03:05:45;5.30;99.90
19397;DHT22;9834;48.076;11.878;2022-11-20T03:08:12;5.20;99.90
19397;DHT22;9834;48.076;11.878;2022-11-20T03:10:39;5.30;99.90
19397;DHT22;9834;48.076;11.878;2022-11-20T03:13:06;5.20;99.90
19397;DHT22;9834;48.076;11.878;2022-11-20T03:15:35;5.20;99.90
19397;DHT22;9834;48.076;11.878;2022-11-20T03:18:02;5.20;99.90
19397;DHT22;9834;48.076;11.878;2022-11-20T03:20:29;5.20;99.90
19397;DHT22;9834;48.076;11.878;2022-11-20T03:22:56;5.20;99.90
19397;DHT22;9834;48.076;11.878;2022-11-20T03:25:23;5.30;99.90
19397;DHT22;9834;48.076;11.878;2022-11-20T03:27:50;5.30;99.90
19397;DHT22;9834;48.076;11.878;2022-11-20T03:30:17;5.30;99.90
19397;DHT22;9834;48.076;11.878;2022-11-20T03:32:45;5.30;99.90
19397;DHT22;9834;48.076;11.878;2022-11-20T03:35:12;5.30;99.90
19397;DHT22;9834;48.076;11.878;2022-11-20T03:37:39;5.30;99.90
19397;DHT22;9834;48.076;11.878;2022-11-20T03:40:07;5.30;99.90
19397;DHT22;9834;48.076;11.878;2022-11-20T03:42:34;5.30;99.90
19397;DHT22;9834;48.076;11.878;2022-11-20T03:45:13;5.30;99.90
19397;DHT22;9834;48.076;11.878;2022-11-20T03:47:40;5.30;99.90
19397;DHT22;9834;48.076;11.878;2022-11-20T03:50:10;5.30;99.90
19397;DHT22;9834;48.076;11.878;2022-11-20T03:52:38;5.30;99.90
19397;DHT22;9834;48.076;11.878;2022-11-20T03:55:06;5.30;99.90
19397;DHT22;9834;48.076;11.878;2022-11-20T03:57:33;5.30;99.90
19397;DHT22;9834;48.076;11.878;2022-11-20T04:00:00;5.30;99.90
19397;DHT22;9834;48.076;11.878;2022-11-20T04:02:26;5.30;99.90
19397;DHT22;9834;48.076;11.878;2022-11-20T04:04:53;5.30;99.90
19397;DHT22;9834;48.076;11.878;2022-11-20T04:07:22;5.40;99.90
19397;DHT22;9834;48.076;11.878;2022-11-20T04:09:49;5.30;99.90
19397;DHT22;9834;48.076;11.878;2022-11-20T04:12:16;5.30;99.90
19397;DHT22;9834;48.076;11.878;2022-11-20T04:14:43;5.30;99.90
19397;DHT22;9834;48.076;11.878;2022-11-20T04:17:09;5.40;99.90
19397;DHT22;9834;48.076;11.878;2022-11-20T04:19:36;5.30;99.90
19397;DHT22;9834;48.076;11.878;2022-11-20T04:22:03;5.30;99.90
19397;DHT22;9834;48.076;11.878;2022-11-20T04:24:32;5.40;99.90
19397;DHT22;9834;48.076;11.878;2022-11-20T04:26:59;5.30;99.90
19397;DHT22;9834;48.076;11.878;2022-11-20T04:29:26;5.30;99.90
19397;DHT22;9834;48.076;11.878;2022-11-20T04:31:52;5.20;99.90
19397;DHT22;9834;48.076;11.878;2022-11-20T04:34:19;5.20;99.90
19397;DHT22;9834;48.076;11.878;2022-11-20T04:36:46;5.20;99.90
19397;DHT22;9834;48.076;11.878;2022-11-20T04:39:14;5.10;99.90
19397;DHT22;9834;48.076;11.878;2022-11-20T04:41:43;5.20;99.90
19397;DHT22;9834;48.076;11.878;2022-11-20T04:44:10;5.20;99.90
19397;DHT22;9834;48.076;11.878;2022-11-20T04:46:39;5.20;99.90
19397;DHT22;9834;48.076;11.878;2022-11-20T04:49:07;5.20;99.90
19397;DHT22;9834;48.076;11.878;2022-11-20T04:51:34;5.20;99.90
19397;DHT22;9834;48.076;11.878;2022-11-20T04:54:01;5.20;99.90
19397;DHT22;9834;48.076;11.878;2022-11-20T04:56:28;5.10;99.90
19397;DHT22;9834;48.076;11.878;2022-11-20T04:59:00;5.10;99.90
19397;DHT22;9834;48.076;11.878;2022-11-20T05:01:28;5.20;99.90
19397;DHT22;9834;48.076;11.878;2022-11-20T05:03:55;5.20;99.90
19397;DHT22;9834;48.076;11.878;2022-11-20T05:06:22;5.20;99.90
19397;DHT22;9834;48.076;11.878;2022-11-20T05:08:49;5.10;99.90
19397;DHT22;9834;48.076;11.878;2022-11-20T05:11:18;5.10;99.90
19397;DHT22;9834;48.076;11.878;2022-11-20T05:13:45;5.20;99.90
19397;DHT22;9834;48.076;11.878;2022-11-20T05:16:15;5.20;99.90
19397;DHT22;9834;48.076;11.878;2022-11-20T05:18:42;5.20;99.90
19397;DHT22;9834;48.076;11.878;2022-11-20T05:21:10;5.20;99.90
19397;DHT22;9834;48.076;11.878;2022-11-20T05:23:38;5.20;99.90
19397;DHT22;9834;48.076;11.878;2022-11-20T05:26:06;5.10;99.90
19397;DHT22;9834;48.076;11.878;2022-11-20T05:28:33;5.10;99.90
19397;DHT22;9834;48.076;11.878;2022-11-20T05:31:05;5.00;99.90
19397;DHT22;9834;48.076;11.878;2022-11-20T05:33:34;5.10;99.90
19397;DHT22;9834;48.076;11.878;2022-11-20T05:36:01;5.10;99.90
19397;DHT22;9834;48.076;11.878;2022-11-20T05:38:29;5.10;99.90
19397;DHT22;9834;48.076;11.878;2022-11-20T05:41:03;5.10;99.90
19397;DHT22;9834;48.076;11.878;2022-11-20T05:43:32;5.10;99.90
19397;DHT22;9834;48.076;11.878;2022-11-20T05:45:59;5.10;99.90
19397;DHT22;9834;48.076;11.878;2022-11-20T05:48:25;5.10;99.90
19397;DHT22;9834;48.076;11.878;2022-11-20T05:50:54;5.10;99.90
19397;DHT22;9834;48.076;11.878;2022-11-20T05:53:21;5.10;99.90
19397;DHT22;9834;48.076;11.878;2022-11-20T05:55:56;5.00;99.90
19397;DHT22;9834;48.076;11.878;2022-11-20T05:58:23;5.00;99.90
19397;DHT22;9834;48.076;11.878;2022-11-20T06:00:50;5.00;99.90
19397;DHT22;9834;48.076;11.878;2022-11-20T06:03:17;5.00;99.90
19397;DHT22;9834;48.076;11.878;2022-11-20T06:05:44;5.00;99.90
19397;DHT22;9834;48.076;11.878;2022-11-20T06:08:13;5.00;99.90
19397;DHT22;9834;48.076;11.878;2022-11-20T06:10:39;5.00;99.90
19397;DHT22;9834;48.076;11.878;2022-11-20T06:13:06;5.00;99.90
19397;DHT22;9834;48.076;11.878;2022-11-20T06:15:33;5.00;99.90
19397;DHT22;9834;48.076;11.878;2022-11-20T06:18:00;5.10;99.90
19397;DHT22;9834;48.076;11.878;2022-11-20T06:20:27;5.00;99.90
19397;DHT22;9834;48.076;11.878;2022-11-20T06:22:54;5.00;99.90
19397;DHT22;9834;48.076;11.878;2022-11-20T06:25:22;5.10;99.90
19397;DHT22;9834;48.076;11.878;2022-11-20T06:27:49;5.00;99.90
19397;DHT22;9834;48.076;11.878;2022-11-20T06:30:16;5.10;99.90
19397;DHT22;9834;48.076;11.878;2022-11-20T06:32:43;5.10;99.90
19397;DHT22;9834;48.076;11.878;2022-11-20T06:35:10;5.10;99.90
19397;DHT22;9834;48.076;11.878;2022-11-20T06:37:37;5.10;99.90
19397;DHT22;9834;48.076;11.878;2022-11-20T06:40:05;5.10;99.90
19397;DHT22;9834;48.076;11.878;2022-11-20T06:42:34;5.00;99.90
19397;DHT22;9834;48.076;11.878;2022-11-20T06:45:01;5.00;99.90
19397;DHT22;9834;48.076;11.878;2022-11-20T06:47:28;5.00;99.90
19397;DHT22;9834;48.076;11.878;2022-11-20T06:49:54;4.90;99.90
19397;DHT22;9834;48.076;11.878;2022-11-20T06:52:21;4.90;99.90
19397;DHT22;9834;48.076;11.878;2022-11-20T06:54:48;4.80;99.90
19397;DHT22;9834;48.076;11.878;2022-11-20T06:57:15;4.80;99.90
19397;DHT22;9834;48.076;11.878;2022-11-20T06:59:43;4.80;99.90
19397;DHT22;9834;48.076;11.878;2022-11-20T07:02:10;4.70;99.90
19397;DHT22;9834;48.076;11.878;2022-11-20T07:04:38;4.70;99.90
19397;DHT22;9834;48.076;11.878;2022-11-20T07:07:05;4.70;99.90
19397;DHT22;9834;48.076;11.878;2022-11-20T07:09:32;4.70;99.90
19397;DHT22;9834;48.076;11.878;2022-11-20T07:11:59;4.60;99.90
19397;DHT22;9834;48.076;11.878;2022-11-20T07:14:27;4.60;99.90
19397;DHT22;9834;48.076;11.878;2022-11-20T07:16:55;4.50;99.90
19397;DHT22;9834;48.076;11.878;2022-11-20T07:19:22;4.50;99.90
19397;DHT22;9834;48.076;11.878;2022-11-20T07:21:49;4.60;99.90
19397;DHT22;9834;48.076;11.878;2022-11-20T07:24:16;4.50;99.90
19397;DHT22;9834;48.076;11.878;2022-11-20T07:26:46;4.60;99.90
19397;DHT22;9834;48.076;11.878;2022-11-20T07:29:13;4.60;99.90
19397;DHT22;9834;48.076;11.878;2022-11-20T07:31:40;4.70;99.90
19397;DHT22;9834;48.076;11.878;2022-11-20T07:34:12;4.80;99.90
19397;DHT22;9834;48.076;11.878;2022-11-20T07:36:39;5.00;99.90
19397;DHT22;9834;48.076;11.878;2022-11-20T07:39:06;5.10;99.90
19397;DHT22;9834;48.076;11.878;2022-11-20T07:41:33;5.20;99.90
19397;DHT22;9834;48.076;11.878;2022-11-20T07:44:00;5.30;99.90
19397;DHT22;9834;48.076;11.878;2022-11-20T07:46:27;5.40;99.90
19397;DHT22;9834;48.076;11.878;2022-11-20T07:48:53;5.60;99.90
19397;DHT22;9834;48.076;11.878;2022-11-20T07:51:22;5.70;99.90
19397;DHT22;9834;48.076;11.878;2022-11-20T07:53:50;5.90;99.90
19397;DHT22;9834;48.076;11.878;2022-11-20T07:56:17;6.00;99.90
19397;DHT22;9834;48.076;11.878;2022-11-20T07:58:44;6.10;99.90
19397;DHT22;9834;48.076;11.878;2022-11-20T08:01:11;6.10;99.90
19397;DHT22;9834;48.076;11.878;2022-11-20T08:03:38;6.10;99.90
19397;DHT22;9834;48.076;11.878;2022-11-20T08:06:06;6.10;99.90
19397;DHT22;9834;48.076;11.878;2022-11-20T08:08:34;6.10;99.90
19397;DHT22;9834;48.076;11.878;2022-11-20T08:11:01;6.20;99.90
19397;DHT22;9834;48.076;11.878;2022-11-20T08:13:42;6.20;99.90
19397;DHT22;9834;48.076;11.878;2022-11-20T08:16:26;6.20;99.90
19397;DHT22;9834;48.076;11.878;2022-11-20T08:18:53;6.20;99.90
19397;DHT22;9834;48.076;11.878;2022-11-20T08:21:20;6.20;99.90
19397;DHT22;9834;48.076;11.878;2022-11-20T08:23:48;6.20;99.90
19397;DHT22;9834;48.076;11.878;2022-11-20T08:26:15;6.20;99.90
19397;DHT22;9834;48.076;11.878;2022-11-20T08:28:42;6.30;99.90
19397;DHT22;9834;48.076;11.878;2022-11-20T08:31:09;6.30;99.90
19397;DHT22;9834;48.076;11.878;2022-11-20T08:33:36;6.30;99.90
19397;DHT22;9834;48.076;11.878;2022-11-20T08:36:04;6.30;99.90
19397;DHT22;9834;48.076;11.878;2022-11-20T08:38:32;6.30;99.90
19397;DHT22;9834;48.076;11.878;2022-11-20T08:41:01;6.40;99.90
19397;DHT22;9834;48.076;11.878;2022-11-20T08:43:46;6.40;99.90
19397;DHT22;9834;48.076;11.878;2022-11-20T08:46:13;6.50;99.90
19397;DHT22;9834;48.076;11.878;2022-11-20T08:48:39;6.40;99.90
19397;DHT22;9834;48.076;11.878;2022-11-20T08:51:06;6.50;99.90
19397;DHT22;9834;48.076;11.878;2022-11-20T08:53:33;6.50;99.90
19397;DHT22;9834;48.076;11.878;2022-11-20T08:56:01;6.50;99.90
19397;DHT22;9834;48.076;11.878;2022-11-20T08:58:28;6.50;99.90
19397;DHT22;9834;48.076;11.878;2022-11-20T09:00:55;6.60;99.90
19397;DHT22;9834;48.076;11.878;2022-11-20T09:03:22;6.70;99.90
19397;DHT22;9834;48.076;11.878;2022-11-20T09:05:56;6.80;99.90
19397;DHT22;9834;48.076;11.878;2022-11-20T09:08:23;6.90;99.90
19397;DHT22;9834;48.076;11.878;2022-11-20T09:10:51;7.10;99.90
19397;DHT22;9834;48.076;11.878;2022-11-20T09:13:20;7.20;99.90
19397;DHT22;9834;48.076;11.878;2022-11-20T09:15:48;7.20;99.90
19397;DHT22;9834;48.076;11.878;2022-11-20T09:18:18;7.30;99.90
19397;DHT22;9834;48.076;11.878;2022-11-20T09:20:45;7.30;99.90
19397;DHT22;9834;48.076;11.878;2022-11-20T09:23:12;7.40;99.90
19397;DHT22;9834;48.076;11.878;2022-11-20T09:25:39;7.40;99.90
19397;DHT22;9834;48.076;11.878;2022-11-20T09:28:06;7.40;99.90
19397;DHT22;9834;48.076;11.878;2022-11-20T09:30:34;7.40;99.90
19397;DHT22;9834;48.076;11.878;2022-11-20T09:33:01;7.30;99.90
19397;DHT22;9834;48.076;11.878;2022-11-20T09:35:30;7.20;99.90
19397;DHT22;9834;48.076;11.878;2022-11-20T09:37:58;7.20;99.90
19397;DHT22;9834;48.076;11.878;2022-11-20T09:40:26;7.20;99.90
19397;DHT22;9834;48.076;11.878;2022-11-20T09:42:58;7.20;99.90
19397;DHT22;9834;48.076;11.878;2022-11-20T09:45:37;7.10;99.90
19397;DHT22;9834;48.076;11.878;2022-11-20T09:48:21;7.10;99.90
19397;DHT22;9834;48.076;11.878;2022-11-20T09:50:56;7.10;99.90
19397;DHT22;9834;48.076;11.878;2022-11-20T09:53:32;7.20;99.90
19397;DHT22;9834;48.076;11.878;2022-11-20T09:56:03;7.20;99.90
19397;DHT22;9834;48.076;11.878;2022-11-20T09:58:35;7.30;99.90
19397;DHT22;9834;48.076;11.878;2022-11-20T10:01:12;7.40;99.90
19397;DHT22;9834;48.076;11.878;2022-11-20T10:03:49;7.50;99.90
19397;DHT22;9834;48.076;11.878;2022-11-20T10:06:23;7.70;99.90
19397;DHT22;9834;48.076;11.878;2022-11-20T10:09:00;7.90;99.90
19397;DHT22;9834;48.076;11.878;2022-11-20T10:11:37;8.00;99.90
19397;DHT22;9834;48.076;11.878;2022-11-20T10:14:16;8.10;99.90
19397;DHT22;9834;48.076;11.878;2022-11-20T10:16:56;8.20;99.90
19397;DHT22;9834;48.076;11.878;2022-11-20T10:19:43;8.30;99.90
19397;DHT22;9834;48.076;11.878;2022-11-20T10:22:20;8.30;99.90
19397;DHT22;9834;48.076;11.878;2022-11-20T10:24:55;8.20;99.90
19397;DHT22;9834;48.076;11.878;2022-11-20T10:27:47;8.10;99.90
19397;DHT22;9834;48.076;11.878;2022-11-20T10:30:20;8.20;98.90
19397;DHT22;9834;48.076;11.878;2022-11-20T10:32:54;8.20;99.10
19397;DHT22;9834;48.076;11.878;2022-11-20T10:35:25;8.20;99.60
19397;DHT22;9834;48.076;11.878;2022-11-20T10:37:57;8.30;96.40
19397;DHT22;9834;48.076;11.878;2022-11-20T10:40:30;8.40;96.90
19397;DHT22;9834;48.076;11.878;2022-11-20T10:43:01;8.50;97.20
19397;DHT22;9834;48.076;11.878;2022-11-20T10:45:49;8.80;97.20
19397;DHT22;9834;48.076;11.878;2022-11-20T10:48:22;8.90;95.60
19397;DHT22;9834;48.076;11.878;2022-11-20T10:50:59;8.80;94.60
19397;DHT22;9834;48.076;11.878;2022-11-20T10:53:42;8.80;94.50
19397;DHT22;9834;48.076;11.878;2022-11-20T10:56:17;8.80;94.60
19397;DHT22;9834;48.076;11.878;2022-11-20T10:58:56;8.90;95.50
19397;DHT22;9834;48.076;11.878;2022-11-20T11:01:27;9.10;95.00
19397;DHT22;9834;48.076;11.878;2022-11-20T11:03:55;9.30;94.10
19397;DHT22;9834;48.076;11.878;2022-11-20T11:06:29;9.40;92.30
19397;DHT22;9834;48.076;11.878;2022-11-20T11:09:03;9.70;92.40
19397;DHT22;9834;48.076;11.878;2022-11-20T11:11:33;9.80;91.80
19397;DHT22;9834;48.076;11.878;2022-11-20T11:14:11;9.80;89.80
19397;DHT22;9834;48.076;11.878;2022-11-20T11:16:49;10.00;89.40
19397;DHT22;9834;48.076;11.878;2022-11-20T11:19:18;9.90;89.20
19397;DHT22;9834;48.076;11.878;2022-11-20T11:21:46;9.80;88.00
19397;DHT22;9834;48.076;11.878;2022-11-20T11:24:20;9.60;89.20
19397;DHT22;9834;48.076;11.878;2022-11-20T11:26:55;9.30;87.80
19397;DHT22;9834;48.076;11.878;2022-11-20T11:29:22;9.00;90.40
19397;DHT22;9834;48.076;11.878;2022-11-20T11:32:03;8.80;90.80
19397;DHT22;9834;48.076;11.878;2022-11-20T11:34:31;8.60;91.60
19397;DHT22;9834;48.076;11.878;2022-11-20T11:37:02;8.50;91.50
19397;DHT22;9834;48.076;11.878;2022-11-20T11:39:32;8.40;91.10
19397;DHT22;9834;48.076;11.878;2022-11-20T11:42:16;8.40;92.50
19397;DHT22;9834;48.076;11.878;2022-11-20T11:45:16;8.30;92.90
19397;DHT22;9834;48.076;11.878;2022-11-20T11:54:43;8.10;94.50
19397;DHT22;9834;48.076;11.878;2022-11-20T11:57:28;8.10;93.90
19397;DHT22;9834;48.076;11.878;2022-11-20T12:00:14;8.20;93.80
19397;DHT22;9834;48.076;11.878;2022-11-20T12:05:57;8.30;94.10
19397;DHT22;9834;48.076;11.878;2022-11-20T12:09:01;8.40;94.00
19397;DHT22;9834;48.076;11.878;2022-11-20T12:11:49;8.50;94.20
19397;DHT22;9834;48.076;11.878;2022-11-20T12:14:27;8.60;93.80
19397;DHT22;9834;48.076;11.878;2022-11-20T12:16:57;8.80;93.90
19397;DHT22;9834;48.076;11.878;2022-11-20T12:19:24;8.80;93.10
19397;DHT22;9834;48.076;11.878;2022-11-20T12:21:58;8.90;93.70
19397;DHT22;9834;48.076;11.878;2022-11-20T12:24:50;9.00;92.40
19397;DHT22;9834;48.076;11.878;2022-11-20T12:30:17;9.10;91.10
19397;DHT22;9834;48.076;11.878;2022-11-20T12:36:00;9.00;90.90
19397;DHT22;9834;48.076;11.878;2022-11-20T12:41:51;8.70;91.80
19397;DHT22;9834;48.076;11.878;2022-11-20T12:47:47;8.50;93.40
19397;DHT22;9834;48.076;11.878;2022-11-20T12:50:23;8.10;95.30
19397;DHT22;9834;48.076;11.878;2022-11-20T12:52:56;7.60;96.50
19397;DHT22;9834;48.076;11.878;2022-11-20T12:55:37;7.20;98.70
19397;DHT22;9834;48.076;11.878;2022-11-20T12:58:12;7.10;98.80
19397;DHT22;9834;48.076;11.878;2022-11-20T13:00:51;7.10;99.60
19397;DHT22;9834;48.076;11.878;2022-11-20T13:03:36;7.00;99.90
19397;DHT22;9834;48.076;11.878;2022-11-20T13:06:11;6.80;99.90
19397;DHT22;9834;48.076;11.878;2022-11-20T13:08:41;6.60;99.90
19397;DHT22;9834;48.076;11.878;2022-11-20T13:11:16;6.60;99.90
19397;DHT22;9834;48.076;11.878;2022-11-20T13:14:02;6.60;99.90
19397;DHT22;9834;48.076;11.878;2022-11-20T13:16:36;6.70;99.90
19397;DHT22;9834;48.076;11.878;2022-11-20T13:19:05;6.70;99.90
19397;DHT22;9834;48.076;11.878;2022-11-20T13:21:38;6.80;99.90
19397;DHT22;9834;48.076;11.878;2022-11-20T13:24:06;6.80;99.90
19397;DHT22;9834;48.076;11.878;2022-11-20T13:26:34;6.80;99.90
19397;DHT22;9834;48.076;11.878;2022-11-20T13:29:07;6.80;99.90
19397;DHT22;9834;48.076;11.878;2022-11-20T13:31:41;6.90;99.90
19397;DHT22;9834;48.076;11.878;2022-11-20T13:34:12;6.80;99.90
19397;DHT22;9834;48.076;11.878;2022-11-20T13:36:49;6.80;99.90
19397;DHT22;9834;48.076;11.878;2022-11-20T13:39:24;6.80;99.90
19397;DHT22;9834;48.076;11.878;2022-11-20T13:41:54;6.70;99.90
19397;DHT22;9834;48.076;11.878;2022-11-20T13:44:27;6.60;99.90
19397;DHT22;9834;48.076;11.878;2022-11-20T13:46:56;6.60;99.90
19397;DHT22;9834;48.076;11.878;2022-11-20T13:49:26;6.60;99.90
19397;DHT22;9834;48.076;11.878;2022-11-20T13:52:03;6.40;99.90
19397;DHT22;9834;48.076;11.878;2022-11-20T13:57:49;5.90;99.90
19397;DHT22;9834;48.076;11.878;2022-11-20T14:00:20;5.60;99.90
19397;DHT22;9834;48.076;11.878;2022-11-20T14:02:59;5.70;99.90
19397;DHT22;9834;48.076;11.878;2022-11-20T14:05:28;5.60;99.90
19397;DHT22;9834;48.076;11.878;2022-11-20T14:07:57;5.50;99.90
19397;DHT22;9834;48.076;11.878;2022-11-20T14:10:26;5.50;99.90
19397;DHT22;9834;48.076;11.878;2022-11-20T14:12:53;5.40;99.90
19397;DHT22;9834;48.076;11.878;2022-11-20T14:15:24;5.40;99.90
19397;DHT22;9834;48.076;11.878;2022-11-20T14:17:53;5.30;99.90
19397;DHT22;9834;48.076;11.878;2022-11-20T14:20:23;5.30;99.90
19397;DHT22;9834;48.076;11.878;2022-11-20T14:22:52;5.30;99.90
19397;DHT22;9834;48.076;11.878;2022-11-20T14:25:21;5.30;99.90
19397;DHT22;9834;48.076;11.878;2022-11-20T14:27:52;5.30;99.90
19397;DHT22;9834;48.076;11.878;2022-11-20T14:30:21;5.40;99.90
19397;DHT22;9834;48.076;11.878;2022-11-20T14:32:49;5.40;99.90
19397;DHT22;9834;48.076;11.878;2022-11-20T14:35:24;5.40;99.90
19397;DHT22;9834;48.076;11.878;2022-11-20T14:37:52;5.50;99.90
19397;DHT22;9834;48.076;11.878;2022-11-20T14:40:28;5.50;99.90
19397;DHT22;9834;48.076;11.878;2022-11-20T14:42:55;5.50;99.90
19397;DHT22;9834;48.076;11.878;2022-11-20T14:45:24;5.60;99.90
19397;DHT22;9834;48.076;11.878;2022-11-20T14:47:52;5.60;99.90
19397;DHT22;9834;48.076;11.878;2022-11-20T14:50:23;5.60;99.90
19397;DHT22;9834;48.076;11.878;2022-11-20T14:52:51;5.60;99.90
19397;DHT22;9834;48.076;11.878;2022-11-20T14:55:34;5.60;99.90
19397;DHT22;9834;48.076;11.878;2022-11-20T14:58:03;5.60;99.90
19397;DHT22;9834;48.076;11.878;2022-11-20T15:00:31;5.60;99.90
19397;DHT22;9834;48.076;11.878;2022-11-20T15:02:58;5.60;99.90
19397;DHT22;9834;48.076;11.878;2022-11-20T15:05:46;5.50;99.90
19397;DHT22;9834;48.076;11.878;2022-11-20T15:08:14;5.50;99.90
19397;DHT22;9834;48.076;11.878;2022-11-20T15:10:46;5.60;99.90
19397;DHT22;9834;48.076;11.878;2022-11-20T15:13:14;5.50;99.90
19397;DHT22;9834;48.076;11.878;2022-11-20T15:15:46;5.60;99.90
19397;DHT22;9834;48.076;11.878;2022-11-20T15:18:16;5.70;99.90
19397;DHT22;9834;48.076;11.878;2022-11-20T15:20:46;5.80;99.90
19397;DHT22;9834;48.076;11.878;2022-11-20T15:23:15;5.80;99.90
19397;DHT22;9834;48.076;11.878;2022-11-20T15:25:44;5.80;99.90
19397;DHT22;9834;48.076;11.878;2022-11-20T15:28:16;5.90;99.90
19397;DHT22;9834;48.076;11.878;2022-11-20T15:30:44;5.90;99.90
19397;DHT22;9834;48.076;11.878;2022-11-20T15:33:12;5.90;99.90
19397;DHT22;9834;48.076;11.878;2022-11-20T15:35:39;5.90;99.90
19397;DHT22;9834;48.076;11.878;2022-11-20T15:38:07;5.90;99.90
19397;DHT22;9834;48.076;11.878;2022-11-20T15:40:34;6.00;99.90
19397;DHT22;9834;48.076;11.878;2022-11-20T15:43:03;6.00;99.90
19397;DHT22;9834;48.076;11.878;2022-11-20T15:45:34;5.90;99.90
19397;DHT22;9834;48.076;11.878;2022-11-20T15:48:03;5.90;99.90
19397;DHT22;9834;48.076;11.878;2022-11-20T15:50:36;5.90;99.90
19397;DHT22;9834;48.076;11.878;2022-11-20T15:53:04;5.90;99.90
19397;DHT22;9834;48.076;11.878;2022-11-20T15:55:33;5.90;99.90
19397;DHT22;9834;48.076;11.878;2022-11-20T15:58:00;5.90;99.90
19397;DHT22;9834;48.076;11.878;2022-11-20T16:00:27;5.90;99.90
19397;DHT22;9834;48.076;11.878;2022-11-20T16:02:54;5.90;99.90
19397;DHT22;9834;48.076;11.878;2022-11-20T16:05:20;5.90;99.90
19397;DHT22;9834;48.076;11.878;2022-11-20T16:07:50;5.90;99.90
19397;DHT22;9834;48.076;11.878;2022-11-20T16:10:17;5.90;99.90
19397;DHT22;9834;48.076;11.878;2022-11-20T16:12:46;5.80;99.90
19397;DHT22;9834;48.076;11.878;2022-11-20T16:15:30;5.80;99.90
19397;DHT22;9834;48.076;11.878;2022-11-20T16:18:15;5.60;99.90
19397;DHT22;9834;48.076;11.878;2022-11-20T16:20:43;5.50;99.90
19397;DHT22;9834;48.076;11.878;2022-11-20T16:23:11;5.50;99.90
19397;DHT22;9834;48.076;11.878;2022-11-20T16:25:38;5.40;99.90
19397;DHT22;9834;48.076;11.878;2022-11-20T16:28:06;5.50;99.90
19397;DHT22;9834;48.076;11.878;2022-11-20T16:30:33;5.50;99.90